sensor_id;sensor_type;location;lat;lon;timestamp;P1;durP1;ratioP1;P2;durP2;ratioP2
66421;SDS011;53228;51.380;0.098;2024-03-02T00:00:41;5.10;;;3.25;;
66421;SDS011;53228;51.380;0.098;2024-03-02T00:03:09;7.03;;;3.13;;
66421;SDS011;53228;51.380;0.098;2024-03-02T00:05:39;8.10;;;2.97;;
66421;SDS011;53228;51.380;0.098;2024-03-02T00:08:07;7.68;;;3.13;;
66421;SDS011;53228;51.380;0.098;2024-03-02T00:10:39;5.55;;;3.45;;
66421;SDS011;53228;51.380;0.098;2024-03-02T00:13:08;6.65;;;4.53;;
66421;SDS011;53228;51.380;0.098;2024-03-02T00:15:46;16.98;;;7.15;;
66421;SDS011;53228;51.380;0.098;2024-03-02T00:18:30;8.40;;;4.97;;
66421;SDS011;53228;51.380;0.098;2024-03-02T00:21:00;7.78;;;3.60;;
66421;SDS011;53228;51.380;0.098;2024-03-02T00:23:30;9.00;;;4.93;;
66421;SDS011;53228;51.380;0.098;2024-03-02T00:25:58;10.63;;;3.90;;
66421;SDS011;53228;51.380;0.098;2024-03-02T00:28:34;7.47;;;3.30;;
66421;SDS011;53228;51.380;0.098;2024-03-02T00:31:07;6.57;;;2.80;;
66421;SDS011;53228;51.380;0.098;2024-03-02T00:33:43;6.88;;;3.58;;
66421;SDS011;53228;51.380;0.098;2024-03-02T00:36:20;6.88;;;3.30;;
66421;SDS011;53228;51.380;0.098;2024-03-02T00:38:52;6.32;;;3.15;;
66421;SDS011;53228;51.380;0.098;2024-03-02T00:41:22;8.70;;;3.22;;
66421;SDS011;53228;51.380;0.098;2024-03-02T00:46:43;4.85;;;2.50;;
66421;SDS011;53228;51.380;0.098;2024-03-02T00:51:49;7.25;;;2.38;;
66421;SDS011;53228;51.380;0.098;2024-03-02T00:54:21;6.65;;;3.03;;
66421;SDS011;53228;51.380;0.098;2024-03-02T00:56:52;6.15;;;2.38;;
66421;SDS011;53228;51.380;0.098;2024-03-02T00:59:22;2.80;;;2.00;;
66421;SDS011;53228;51.380;0.098;2024-03-02T01:01:50;5.40;;;2.03;;
66421;SDS011;53228;51.380;0.098;2024-03-02T01:04:18;3.35;;;2.28;;
66421;SDS011;53228;51.380;0.098;2024-03-02T01:06:46;4.75;;;2.65;;
66421;SDS011;53228;51.380;0.098;2024-03-02T01:09:14;9.13;;;2.70;;
66421;SDS011;53228;51.380;0.098;2024-03-02T01:11:41;5.35;;;2.60;;
66421;SDS011;53228;51.380;0.098;2024-03-02T01:14:09;6.15;;;2.60;;
66421;SDS011;53228;51.380;0.098;2024-03-02T01:16:37;6.15;;;2.50;;
66421;SDS011;53228;51.380;0.098;2024-03-02T01:19:05;6.63;;;3.25;;
66421;SDS011;53228;51.380;0.098;2024-03-02T01:21:33;5.18;;;2.70;;
66421;SDS011;53228;51.380;0.098;2024-03-02T01:24:00;7.93;;;3.30;;
66421;SDS011;53228;51.380;0.098;2024-03-02T01:26:28;6.50;;;3.20;;
66421;SDS011;53228;51.380;0.098;2024-03-02T01:28:56;17.90;;;3.95;;
66421;SDS011;53228;51.380;0.098;2024-03-02T01:31:23;11.20;;;3.78;;
66421;SDS011;53228;51.380;0.098;2024-03-02T01:33:51;9.43;;;3.80;;
66421;SDS011;53228;51.380;0.098;2024-03-02T01:36:19;8.88;;;3.42;;
66421;SDS011;53228;51.380;0.098;2024-03-02T01:38:46;11.70;;;3.88;;
66421;SDS011;53228;51.380;0.098;2024-03-02T01:41:14;9.07;;;3.85;;
66421;SDS011;53228;51.380;0.098;2024-03-02T01:43:42;6.50;;;3.40;;
66421;SDS011;53228;51.380;0.098;2024-03-02T01:46:09;8.63;;;3.72;;
66421;SDS011;53228;51.380;0.098;2024-03-02T01:48:37;8.63;;;3.28;;
66421;SDS011;53228;51.380;0.098;2024-03-02T01:51:05;10.70;;;3.83;;
66421;SDS011;53228;51.380;0.098;2024-03-02T01:53:34;7.43;;;3.33;;
66421;SDS011;53228;51.380;0.098;2024-03-02T01:56:02;16.05;;;5.05;;
66421;SDS011;53228;51.380;0.098;2024-03-02T01:58:30;8.50;;;4.15;;
66421;SDS011;53228;51.380;0.098;2024-03-02T02:00:57;10.68;;;4.07;;
66421;SDS011;53228;51.380;0.098;2024-03-02T02:03:25;10.25;;;4.10;;
66421;SDS011;53228;51.380;0.098;2024-03-02T02:05:53;14.00;;;4.40;;
66421;SDS011;53228;51.380;0.098;2024-03-02T02:08:23;9.40;;;4.13;;
66421;SDS011;53228;51.380;0.098;2024-03-02T02:10:51;11.27;;;4.68;;
66421;SDS011;53228;51.380;0.098;2024-03-02T02:13:19;12.25;;;4.68;;
66421;SDS011;53228;51.380;0.098;2024-03-02T02:15:47;11.80;;;5.38;;
66421;SDS011;53228;51.380;0.098;2024-03-02T02:18:14;10.02;;;4.70;;
66421;SDS011;53228;51.380;0.098;2024-03-02T02:20:42;12.52;;;4.75;;
66421;SDS011;53228;51.380;0.098;2024-03-02T02:23:10;10.23;;;4.95;;
66421;SDS011;53228;51.380;0.098;2024-03-02T02:25:39;9.27;;;4.90;;
66421;SDS011;53228;51.380;0.098;2024-03-02T02:28:07;10.32;;;4.88;;
66421;SDS011;53228;51.380;0.098;2024-03-02T02:30:34;11.15;;;4.30;;
66421;SDS011;53228;51.380;0.098;2024-03-02T02:33:02;10.18;;;4.53;;
66421;SDS011;53228;51.380;0.098;2024-03-02T02:35:30;11.77;;;5.18;;
66421;SDS011;53228;51.380;0.098;2024-03-02T02:37:58;11.30;;;5.55;;
66421;SDS011;53228;51.380;0.098;2024-03-02T02:40:26;13.40;;;5.22;;
66421;SDS011;53228;51.380;0.098;2024-03-02T02:42:57;13.80;;;4.60;;
66421;SDS011;53228;51.380;0.098;2024-03-02T02:45:28;10.60;;;5.05;;
66421;SDS011;53228;51.380;0.098;2024-03-02T02:47:57;12.90;;;4.97;;
66421;SDS011;53228;51.380;0.098;2024-03-02T02:50:25;15.38;;;5.80;;
66421;SDS011;53228;51.380;0.098;2024-03-02T02:52:52;12.88;;;4.95;;
66421;SDS011;53228;51.380;0.098;2024-03-02T02:55:20;9.65;;;4.28;;
66421;SDS011;53228;51.380;0.098;2024-03-02T02:57:48;11.68;;;5.30;;
66421;SDS011;53228;51.380;0.098;2024-03-02T03:00:16;12.65;;;5.20;;
66421;SDS011;53228;51.380;0.098;2024-03-02T03:02:46;10.93;;;5.43;;
66421;SDS011;53228;51.380;0.098;2024-03-02T03:05:18;19.35;;;5.60;;
66421;SDS011;53228;51.380;0.098;2024-03-02T03:07:46;12.55;;;4.70;;
66421;SDS011;53228;51.380;0.098;2024-03-02T03:10:17;15.23;;;5.32;;
66421;SDS011;53228;51.380;0.098;2024-03-02T03:12:45;13.35;;;5.47;;
66421;SDS011;53228;51.380;0.098;2024-03-02T03:15:13;12.45;;;5.20;;
66421;SDS011;53228;51.380;0.098;2024-03-02T03:17:43;18.30;;;4.78;;
66421;SDS011;53228;51.380;0.098;2024-03-02T03:20:13;8.68;;;4.60;;
66421;SDS011;53228;51.380;0.098;2024-03-02T03:22:42;11.10;;;4.38;;
66421;SDS011;53228;51.380;0.098;2024-03-02T03:25:11;8.55;;;5.15;;
66421;SDS011;53228;51.380;0.098;2024-03-02T03:27:41;15.75;;;5.85;;
66421;SDS011;53228;51.380;0.098;2024-03-02T03:30:09;14.82;;;5.22;;
66421;SDS011;53228;51.380;0.098;2024-03-02T03:32:37;13.25;;;5.45;;
66421;SDS011;53228;51.380;0.098;2024-03-02T03:35:05;11.25;;;5.10;;
66421;SDS011;53228;51.380;0.098;2024-03-02T03:37:34;16.13;;;6.05;;
66421;SDS011;53228;51.380;0.098;2024-03-02T03:40:02;13.48;;;6.03;;
66421;SDS011;53228;51.380;0.098;2024-03-02T03:42:34;12.27;;;5.57;;
66421;SDS011;53228;51.380;0.098;2024-03-02T03:45:06;14.02;;;5.97;;
66421;SDS011;53228;51.380;0.098;2024-03-02T03:47:34;12.63;;;5.38;;
66421;SDS011;53228;51.380;0.098;2024-03-02T03:50:02;15.88;;;6.43;;
66421;SDS011;53228;51.380;0.098;2024-03-02T03:52:33;10.32;;;5.20;;
66421;SDS011;53228;51.380;0.098;2024-03-02T03:55:01;17.75;;;6.75;;
66421;SDS011;53228;51.380;0.098;2024-03-02T03:57:29;12.07;;;6.35;;
66421;SDS011;53228;51.380;0.098;2024-03-02T03:59:57;14.80;;;6.63;;
66421;SDS011;53228;51.380;0.098;2024-03-02T04:02:24;16.90;;;6.75;;
66421;SDS011;53228;51.380;0.098;2024-03-02T04:04:53;16.50;;;6.65;;
66421;SDS011;53228;51.380;0.098;2024-03-02T04:07:21;13.60;;;6.57;;
66421;SDS011;53228;51.380;0.098;2024-03-02T04:09:49;18.17;;;7.95;;
66421;SDS011;53228;51.380;0.098;2024-03-02T04:12:16;14.48;;;7.47;;
66421;SDS011;53228;51.380;0.098;2024-03-02T04:14:44;15.05;;;6.93;;
66421;SDS011;53228;51.380;0.098;2024-03-02T04:17:12;14.25;;;6.97;;
66421;SDS011;53228;51.380;0.098;2024-03-02T04:19:40;17.88;;;8.30;;
66421;SDS011;53228;51.380;0.098;2024-03-02T04:22:07;18.13;;;7.90;;
66421;SDS011;53228;51.380;0.098;2024-03-02T04:24:47;17.33;;;7.47;;
66421;SDS011;53228;51.380;0.098;2024-03-02T04:27:15;14.98;;;6.43;;
66421;SDS011;53228;51.380;0.098;2024-03-02T04:29:42;16.08;;;7.10;;
66421;SDS011;53228;51.380;0.098;2024-03-02T04:32:10;19.88;;;7.35;;
66421;SDS011;53228;51.380;0.098;2024-03-02T04:34:38;18.58;;;8.07;;
66421;SDS011;53228;51.380;0.098;2024-03-02T04:37:05;20.88;;;7.43;;
66421;SDS011;53228;51.380;0.098;2024-03-02T04:39:34;16.67;;;7.25;;
66421;SDS011;53228;51.380;0.098;2024-03-02T04:42:02;20.00;;;7.97;;
66421;SDS011;53228;51.380;0.098;2024-03-02T04:44:30;16.75;;;6.95;;
66421;SDS011;53228;51.380;0.098;2024-03-02T04:46:58;16.33;;;6.07;;
66421;SDS011;53228;51.380;0.098;2024-03-02T04:49:26;12.90;;;5.20;;
66421;SDS011;53228;51.380;0.098;2024-03-02T04:51:53;9.60;;;5.13;;
66421;SDS011;53228;51.380;0.098;2024-03-02T04:54:21;14.50;;;5.90;;
66421;SDS011;53228;51.380;0.098;2024-03-02T04:56:49;11.98;;;4.78;;
66421;SDS011;53228;51.380;0.098;2024-03-02T04:59:17;11.80;;;4.57;;
66421;SDS011;53228;51.380;0.098;2024-03-02T05:01:45;11.18;;;4.72;;
66421;SDS011;53228;51.380;0.098;2024-03-02T05:04:14;10.25;;;5.00;;
66421;SDS011;53228;51.380;0.098;2024-03-02T05:06:42;10.25;;;3.70;;
66421;SDS011;53228;51.380;0.098;2024-03-02T05:09:10;13.45;;;5.55;;
66421;SDS011;53228;51.380;0.098;2024-03-02T05:11:37;14.38;;;5.28;;
66421;SDS011;53228;51.380;0.098;2024-03-02T05:14:05;14.65;;;5.55;;
66421;SDS011;53228;51.380;0.098;2024-03-02T05:16:34;14.30;;;5.57;;
66421;SDS011;53228;51.380;0.098;2024-03-02T05:19:02;12.23;;;4.78;;
66421;SDS011;53228;51.380;0.098;2024-03-02T05:21:30;9.55;;;4.80;;
66421;SDS011;53228;51.380;0.098;2024-03-02T05:23:57;9.10;;;5.15;;
66421;SDS011;53228;51.380;0.098;2024-03-02T05:26:25;10.15;;;4.80;;
66421;SDS011;53228;51.380;0.098;2024-03-02T05:28:53;10.98;;;5.20;;
66421;SDS011;53228;51.380;0.098;2024-03-02T05:31:20;8.48;;;3.90;;
66421;SDS011;53228;51.380;0.098;2024-03-02T05:33:48;7.75;;;3.78;;
66421;SDS011;53228;51.380;0.098;2024-03-02T05:36:20;12.07;;;4.97;;
66421;SDS011;53228;51.380;0.098;2024-03-02T05:38:48;10.13;;;4.50;;
66421;SDS011;53228;51.380;0.098;2024-03-02T05:41:15;9.82;;;4.88;;
66421;SDS011;53228;51.380;0.098;2024-03-02T05:43:43;10.75;;;4.35;;
66421;SDS011;53228;51.380;0.098;2024-03-02T05:46:11;8.73;;;4.57;;
66421;SDS011;53228;51.380;0.098;2024-03-02T05:48:39;8.20;;;4.65;;
66421;SDS011;53228;51.380;0.098;2024-03-02T05:51:06;11.70;;;5.10;;
66421;SDS011;53228;51.380;0.098;2024-03-02T05:53:34;17.98;;;5.55;;
66421;SDS011;53228;51.380;0.098;2024-03-02T05:56:05;10.23;;;4.85;;
66421;SDS011;53228;51.380;0.098;2024-03-02T05:58:33;8.45;;;4.70;;
66421;SDS011;53228;51.380;0.098;2024-03-02T06:01:00;12.18;;;5.10;;
66421;SDS011;53228;51.380;0.098;2024-03-02T06:03:28;9.45;;;4.68;;
66421;SDS011;53228;51.380;0.098;2024-03-02T06:05:56;6.63;;;3.15;;
66421;SDS011;53228;51.380;0.098;2024-03-02T06:08:24;7.63;;;4.05;;
66421;SDS011;53228;51.380;0.098;2024-03-02T06:10:51;6.85;;;4.13;;
66421;SDS011;53228;51.380;0.098;2024-03-02T06:13:19;12.60;;;5.22;;
66421;SDS011;53228;51.380;0.098;2024-03-02T06:15:46;7.57;;;3.88;;
66421;SDS011;53228;51.380;0.098;2024-03-02T06:18:14;9.15;;;4.65;;
66421;SDS011;53228;51.380;0.098;2024-03-02T06:20:42;8.48;;;4.80;;
66421;SDS011;53228;51.380;0.098;2024-03-02T06:23:10;11.15;;;3.67;;
66421;SDS011;53228;51.380;0.098;2024-03-02T06:25:37;12.07;;;4.78;;
66421;SDS011;53228;51.380;0.098;2024-03-02T06:28:05;12.30;;;5.40;;
66421;SDS011;53228;51.380;0.098;2024-03-02T06:30:32;11.52;;;4.50;;
66421;SDS011;53228;51.380;0.098;2024-03-02T06:33:00;12.57;;;5.57;;
66421;SDS011;53228;51.380;0.098;2024-03-02T06:35:28;16.77;;;8.10;;
66421;SDS011;53228;51.380;0.098;2024-03-02T06:37:55;11.18;;;5.65;;
66421;SDS011;53228;51.380;0.098;2024-03-02T06:40:23;12.57;;;6.13;;
66421;SDS011;53228;51.380;0.098;2024-03-02T06:42:51;13.88;;;5.72;;
66421;SDS011;53228;51.380;0.098;2024-03-02T06:45:18;15.60;;;5.97;;
66421;SDS011;53228;51.380;0.098;2024-03-02T06:47:46;19.50;;;6.05;;
66421;SDS011;53228;51.380;0.098;2024-03-02T06:50:14;18.65;;;6.85;;
66421;SDS011;53228;51.380;0.098;2024-03-02T06:52:41;11.52;;;5.85;;
66421;SDS011;53228;51.380;0.098;2024-03-02T06:55:10;13.45;;;6.50;;
66421;SDS011;53228;51.380;0.098;2024-03-02T06:57:38;10.50;;;4.43;;
66421;SDS011;53228;51.380;0.098;2024-03-02T07:00:06;14.48;;;5.97;;
66421;SDS011;53228;51.380;0.098;2024-03-02T07:02:36;14.63;;;6.47;;
66421;SDS011;53228;51.380;0.098;2024-03-02T07:05:03;17.20;;;7.40;;
66421;SDS011;53228;51.380;0.098;2024-03-02T07:07:32;15.18;;;6.50;;
66421;SDS011;53228;51.380;0.098;2024-03-02T07:10:00;13.70;;;6.35;;
66421;SDS011;53228;51.380;0.098;2024-03-02T07:12:28;14.48;;;6.22;;
66421;SDS011;53228;51.380;0.098;2024-03-02T07:14:56;20.70;;;6.60;;
66421;SDS011;53228;51.380;0.098;2024-03-02T07:17:38;20.13;;;6.75;;
66421;SDS011;53228;51.380;0.098;2024-03-02T07:20:06;17.65;;;7.63;;
66421;SDS011;53228;51.380;0.098;2024-03-02T07:22:34;15.35;;;7.18;;
66421;SDS011;53228;51.380;0.098;2024-03-02T07:25:01;16.60;;;7.45;;
66421;SDS011;53228;51.380;0.098;2024-03-02T07:27:30;16.60;;;6.93;;
66421;SDS011;53228;51.380;0.098;2024-03-02T07:29:59;15.10;;;6.10;;
66421;SDS011;53228;51.380;0.098;2024-03-02T07:32:27;18.60;;;7.22;;
66421;SDS011;53228;51.380;0.098;2024-03-02T07:34:54;14.55;;;6.72;;
66421;SDS011;53228;51.380;0.098;2024-03-02T07:37:23;16.20;;;6.93;;
66421;SDS011;53228;51.380;0.098;2024-03-02T07:39:51;14.77;;;6.60;;
66421;SDS011;53228;51.380;0.098;2024-03-02T07:42:18;10.68;;;3.83;;
66421;SDS011;53228;51.380;0.098;2024-03-02T07:44:46;21.20;;;6.78;;
66421;SDS011;53228;51.380;0.098;2024-03-02T07:47:14;15.98;;;5.88;;
66421;SDS011;53228;51.380;0.098;2024-03-02T07:49:41;17.83;;;6.80;;
66421;SDS011;53228;51.380;0.098;2024-03-02T07:52:09;15.82;;;6.10;;
66421;SDS011;53228;51.380;0.098;2024-03-02T07:54:37;15.55;;;5.40;;
66421;SDS011;53228;51.380;0.098;2024-03-02T07:57:05;18.02;;;6.28;;
66421;SDS011;53228;51.380;0.098;2024-03-02T07:59:32;15.27;;;6.43;;
66421;SDS011;53228;51.380;0.098;2024-03-02T08:02:00;12.02;;;5.25;;
66421;SDS011;53228;51.380;0.098;2024-03-02T08:04:28;15.23;;;5.82;;
66421;SDS011;53228;51.380;0.098;2024-03-02T08:06:55;15.80;;;5.47;;
66421;SDS011;53228;51.380;0.098;2024-03-02T08:09:24;14.23;;;6.07;;
66421;SDS011;53228;51.380;0.098;2024-03-02T08:11:52;16.08;;;6.90;;
66421;SDS011;53228;51.380;0.098;2024-03-02T08:14:20;15.18;;;6.05;;
66421;SDS011;53228;51.380;0.098;2024-03-02T08:16:48;13.35;;;5.70;;
66421;SDS011;53228;51.380;0.098;2024-03-02T08:19:16;9.13;;;4.20;;
66421;SDS011;53228;51.380;0.098;2024-03-02T08:21:43;13.63;;;5.85;;
66421;SDS011;53228;51.380;0.098;2024-03-02T08:24:12;14.40;;;6.00;;
66421;SDS011;53228;51.380;0.098;2024-03-02T08:26:39;15.30;;;5.93;;
66421;SDS011;53228;51.380;0.098;2024-03-02T08:29:07;11.07;;;5.47;;
66421;SDS011;53228;51.380;0.098;2024-03-02T08:31:34;9.95;;;4.75;;
66421;SDS011;53228;51.380;0.098;2024-03-02T08:34:05;10.30;;;5.00;;
66421;SDS011;53228;51.380;0.098;2024-03-02T08:36:33;11.35;;;4.97;;
66421;SDS011;53228;51.380;0.098;2024-03-02T08:39:01;12.85;;;4.55;;
66421;SDS011;53228;51.380;0.098;2024-03-02T08:41:29;12.48;;;5.32;;
66421;SDS011;53228;51.380;0.098;2024-03-02T08:43:57;7.80;;;3.63;;
66421;SDS011;53228;51.380;0.098;2024-03-02T08:46:24;10.63;;;4.50;;
66421;SDS011;53228;51.380;0.098;2024-03-02T08:48:52;10.13;;;4.05;;
66421;SDS011;53228;51.380;0.098;2024-03-02T08:51:19;10.35;;;4.10;;
66421;SDS011;53228;51.380;0.098;2024-03-02T08:53:47;13.95;;;4.88;;
66421;SDS011;53228;51.380;0.098;2024-03-02T08:56:15;10.15;;;4.70;;
66421;SDS011;53228;51.380;0.098;2024-03-02T08:58:43;9.43;;;4.25;;
66421;SDS011;53228;51.380;0.098;2024-03-02T09:01:11;7.32;;;3.72;;
66421;SDS011;53228;51.380;0.098;2024-03-02T09:03:39;7.05;;;2.90;;
66421;SDS011;53228;51.380;0.098;2024-03-02T09:06:07;7.55;;;3.55;;
66421;SDS011;53228;51.380;0.098;2024-03-02T09:08:34;7.35;;;3.08;;
66421;SDS011;53228;51.380;0.098;2024-03-02T09:11:03;8.57;;;3.13;;
66421;SDS011;53228;51.380;0.098;2024-03-02T09:13:32;5.50;;;2.90;;
66421;SDS011;53228;51.380;0.098;2024-03-02T09:16:00;6.72;;;2.72;;
66421;SDS011;53228;51.380;0.098;2024-03-02T09:18:27;4.07;;;2.30;;
66421;SDS011;53228;51.380;0.098;2024-03-02T09:20:55;5.35;;;2.80;;
66421;SDS011;53228;51.380;0.098;2024-03-02T09:23:23;7.70;;;3.15;;
66421;SDS011;53228;51.380;0.098;2024-03-02T09:25:51;8.43;;;3.42;;
66421;SDS011;53228;51.380;0.098;2024-03-02T09:28:19;11.65;;;3.08;;
66421;SDS011;53228;51.380;0.098;2024-03-02T09:30:46;5.57;;;3.28;;
66421;SDS011;53228;51.380;0.098;2024-03-02T09:33:14;5.60;;;2.50;;
66421;SDS011;53228;51.380;0.098;2024-03-02T09:35:43;11.38;;;2.75;;
66421;SDS011;53228;51.380;0.098;2024-03-02T09:38:12;6.82;;;2.95;;
66421;SDS011;53228;51.380;0.098;2024-03-02T09:40:41;8.57;;;3.78;;
66421;SDS011;53228;51.380;0.098;2024-03-02T09:43:09;6.70;;;2.95;;
66421;SDS011;53228;51.380;0.098;2024-03-02T09:45:37;6.22;;;2.97;;
66421;SDS011;53228;51.380;0.098;2024-03-02T09:48:05;4.35;;;2.30;;
66421;SDS011;53228;51.380;0.098;2024-03-02T09:50:33;5.18;;;2.45;;
66421;SDS011;53228;51.380;0.098;2024-03-02T09:53:01;3.55;;;2.45;;
66421;SDS011;53228;51.380;0.098;2024-03-02T09:55:29;5.25;;;2.72;;
66421;SDS011;53228;51.380;0.098;2024-03-02T09:57:57;4.05;;;2.25;;
66421;SDS011;53228;51.380;0.098;2024-03-02T10:00:24;4.32;;;2.10;;
66421;SDS011;53228;51.380;0.098;2024-03-02T10:02:52;4.15;;;2.45;;
66421;SDS011;53228;51.380;0.098;2024-03-02T10:05:26;5.43;;;2.45;;
66421;SDS011;53228;51.380;0.098;2024-03-02T10:08:00;3.35;;;2.05;;
66421;SDS011;53228;51.380;0.098;2024-03-02T10:10:39;4.38;;;2.30;;
66421;SDS011;53228;51.380;0.098;2024-03-02T10:13:09;4.53;;;2.33;;
66421;SDS011;53228;51.380;0.098;2024-03-02T10:15:38;7.07;;;3.35;;
66421;SDS011;53228;51.380;0.098;2024-03-02T10:18:10;6.85;;;2.50;;
66421;SDS011;53228;51.380;0.098;2024-03-02T10:20:39;3.20;;;2.08;;
66421;SDS011;53228;51.380;0.098;2024-03-02T10:23:11;3.53;;;2.45;;
66421;SDS011;53228;51.380;0.098;2024-03-02T10:25:40;5.03;;;1.88;;
66421;SDS011;53228;51.380;0.098;2024-03-02T10:28:23;3.95;;;1.98;;
66421;SDS011;53228;51.380;0.098;2024-03-02T10:30:51;7.47;;;3.17;;
66421;SDS011;53228;51.380;0.098;2024-03-02T10:33:20;4.68;;;2.95;;
66421;SDS011;53228;51.380;0.098;2024-03-02T10:35:51;3.25;;;1.88;;
66421;SDS011;53228;51.380;0.098;2024-03-02T10:38:19;4.38;;;2.80;;
66421;SDS011;53228;51.380;0.098;2024-03-02T10:40:48;4.85;;;3.00;;
66421;SDS011;53228;51.380;0.098;2024-03-02T10:43:16;6.28;;;2.35;;
66421;SDS011;53228;51.380;0.098;2024-03-02T10:45:46;6.30;;;3.35;;
66421;SDS011;53228;51.380;0.098;2024-03-02T10:48:18;5.95;;;2.80;;
66421;SDS011;53228;51.380;0.098;2024-03-02T10:50:46;4.88;;;2.17;;
66421;SDS011;53228;51.380;0.098;2024-03-02T10:53:13;4.03;;;2.78;;
66421;SDS011;53228;51.380;0.098;2024-03-02T10:55:41;5.00;;;2.70;;
66421;SDS011;53228;51.380;0.098;2024-03-02T10:58:09;6.30;;;2.80;;
66421;SDS011;53228;51.380;0.098;2024-03-02T11:00:42;4.38;;;2.47;;
66421;SDS011;53228;51.380;0.098;2024-03-02T11:03:13;4.80;;;3.10;;
66421;SDS011;53228;51.380;0.098;2024-03-02T11:05:43;4.60;;;3.03;;
66421;SDS011;53228;51.380;0.098;2024-03-02T11:10:41;6.97;;;2.97;;
66421;SDS011;53228;51.380;0.098;2024-03-02T11:13:22;9.32;;;3.45;;
66421;SDS011;53228;51.380;0.098;2024-03-02T11:15:59;7.57;;;3.20;;
66421;SDS011;53228;51.380;0.098;2024-03-02T11:18:39;6.25;;;3.47;;
66421;SDS011;53228;51.380;0.098;2024-03-02T11:21:08;9.43;;;4.13;;
66421;SDS011;53228;51.380;0.098;2024-03-02T11:23:36;4.95;;;2.95;;
66421;SDS011;53228;51.380;0.098;2024-03-02T11:26:17;6.22;;;3.30;;
66421;SDS011;53228;51.380;0.098;2024-03-02T11:28:45;8.95;;;4.00;;
66421;SDS011;53228;51.380;0.098;2024-03-02T11:31:13;7.07;;;4.32;;
66421;SDS011;53228;51.380;0.098;2024-03-02T11:33:41;3.45;;;2.17;;
66421;SDS011;53228;51.380;0.098;2024-03-02T11:36:10;6.60;;;3.53;;
66421;SDS011;53228;51.380;0.098;2024-03-02T11:38:39;4.60;;;2.53;;
66421;SDS011;53228;51.380;0.098;2024-03-02T11:41:12;5.75;;;3.65;;
66421;SDS011;53228;51.380;0.098;2024-03-02T11:43:41;5.88;;;3.83;;
66421;SDS011;53228;51.380;0.098;2024-03-02T11:46:11;7.85;;;4.22;;
66421;SDS011;53228;51.380;0.098;2024-03-02T11:48:40;5.22;;;3.17;;
66421;SDS011;53228;51.380;0.098;2024-03-02T11:51:08;9.02;;;4.40;;
66421;SDS011;53228;51.380;0.098;2024-03-02T11:53:36;8.52;;;4.40;;
66421;SDS011;53228;51.380;0.098;2024-03-02T11:56:06;20.02;;;5.05;;
66421;SDS011;53228;51.380;0.098;2024-03-02T11:58:36;10.40;;;4.88;;
66421;SDS011;53228;51.380;0.098;2024-03-02T12:01:05;5.72;;;3.83;;
66421;SDS011;53228;51.380;0.098;2024-03-02T12:03:33;10.38;;;3.97;;
66421;SDS011;53228;51.380;0.098;2024-03-02T12:06:02;8.85;;;4.22;;
66421;SDS011;53228;51.380;0.098;2024-03-02T12:08:30;6.32;;;3.83;;
66421;SDS011;53228;51.380;0.098;2024-03-02T12:10:59;4.55;;;2.65;;
66421;SDS011;53228;51.380;0.098;2024-03-02T12:13:30;4.85;;;3.00;;
66421;SDS011;53228;51.380;0.098;2024-03-02T12:15:58;6.50;;;3.42;;
66421;SDS011;53228;51.380;0.098;2024-03-02T12:18:27;9.10;;;3.10;;
66421;SDS011;53228;51.380;0.098;2024-03-02T12:20:54;8.48;;;3.33;;
66421;SDS011;53228;51.380;0.098;2024-03-02T12:23:25;4.97;;;3.03;;
66421;SDS011;53228;51.380;0.098;2024-03-02T12:25:53;7.45;;;3.30;;
66421;SDS011;53228;51.380;0.098;2024-03-02T12:28:20;5.70;;;2.90;;
66421;SDS011;53228;51.380;0.098;2024-03-02T12:30:48;5.10;;;2.92;;
66421;SDS011;53228;51.380;0.098;2024-03-02T12:33:17;4.82;;;2.63;;
66421;SDS011;53228;51.380;0.098;2024-03-02T12:35:44;8.35;;;2.90;;
66421;SDS011;53228;51.380;0.098;2024-03-02T12:38:12;4.60;;;2.70;;
66421;SDS011;53228;51.380;0.098;2024-03-02T12:40:42;5.57;;;2.17;;
66421;SDS011;53228;51.380;0.098;2024-03-02T12:43:09;5.18;;;2.28;;
66421;SDS011;53228;51.380;0.098;2024-03-02T12:45:38;5.88;;;2.55;;
66421;SDS011;53228;51.380;0.098;2024-03-02T12:48:06;6.97;;;2.55;;
66421;SDS011;53228;51.380;0.098;2024-03-02T12:50:34;3.50;;;2.22;;
66421;SDS011;53228;51.380;0.098;2024-03-02T12:53:02;10.73;;;2.90;;
66421;SDS011;53228;51.380;0.098;2024-03-02T12:55:30;5.97;;;2.33;;
66421;SDS011;53228;51.380;0.098;2024-03-02T12:57:58;13.98;;;6.32;;
66421;SDS011;53228;51.380;0.098;2024-03-02T13:00:26;6.30;;;1.92;;
66421;SDS011;53228;51.380;0.098;2024-03-02T13:02:56;9.13;;;4.90;;
66421;SDS011;53228;51.380;0.098;2024-03-02T13:05:32;6.20;;;2.47;;
66421;SDS011;53228;51.380;0.098;2024-03-02T13:08:00;5.88;;;3.53;;
66421;SDS011;53228;51.380;0.098;2024-03-02T13:10:30;4.72;;;1.70;;
66421;SDS011;53228;51.380;0.098;2024-03-02T13:12:59;3.88;;;2.25;;
66421;SDS011;53228;51.380;0.098;2024-03-02T13:15:28;4.63;;;1.33;;
66421;SDS011;53228;51.380;0.098;2024-03-02T13:17:58;5.43;;;2.53;;
66421;SDS011;53228;51.380;0.098;2024-03-02T13:20:31;8.02;;;2.58;;
66421;SDS011;53228;51.380;0.098;2024-03-02T13:23:00;3.90;;;1.30;;
66421;SDS011;53228;51.380;0.098;2024-03-02T13:25:28;2.90;;;1.20;;
66421;SDS011;53228;51.380;0.098;2024-03-02T13:27:59;2.10;;;1.10;;
66421;SDS011;53228;51.380;0.098;2024-03-02T13:30:27;1.75;;;1.20;;
66421;SDS011;53228;51.380;0.098;2024-03-02T13:32:55;2.65;;;1.20;;
66421;SDS011;53228;51.380;0.098;2024-03-02T13:35:23;0.68;;;0.68;;
66421;SDS011;53228;51.380;0.098;2024-03-02T13:37:51;1.15;;;0.65;;
66421;SDS011;53228;51.380;0.098;2024-03-02T13:40:19;2.97;;;1.05;;
66421;SDS011;53228;51.380;0.098;2024-03-02T13:42:47;0.85;;;0.80;;
66421;SDS011;53228;51.380;0.098;2024-03-02T13:45:15;1.35;;;0.60;;
66421;SDS011;53228;51.380;0.098;2024-03-02T13:47:44;0.60;;;0.60;;
66421;SDS011;53228;51.380;0.098;2024-03-02T13:50:12;0.88;;;0.85;;
66421;SDS011;53228;51.380;0.098;2024-03-02T13:52:39;0.60;;;0.60;;
66421;SDS011;53228;51.380;0.098;2024-03-02T13:55:07;0.68;;;0.60;;
66421;SDS011;53228;51.380;0.098;2024-03-02T13:57:35;0.90;;;0.40;;
66421;SDS011;53228;51.380;0.098;2024-03-02T14:00:03;0.90;;;0.80;;
66421;SDS011;53228;51.380;0.098;2024-03-02T14:02:38;0.50;;;0.50;;
66421;SDS011;53228;51.380;0.098;2024-03-02T14:05:06;0.30;;;0.30;;
66421;SDS011;53228;51.380;0.098;2024-03-02T14:07:38;0.22;;;0.22;;
66421;SDS011;53228;51.380;0.098;2024-03-02T14:10:06;0.43;;;0.43;;
66421;SDS011;53228;51.380;0.098;2024-03-02T14:12:34;0.70;;;0.70;;
66421;SDS011;53228;51.380;0.098;2024-03-02T14:15:02;0.30;;;0.30;;
66421;SDS011;53228;51.380;0.098;2024-03-02T14:17:31;0.30;;;0.30;;
66421;SDS011;53228;51.380;0.098;2024-03-02T14:20:01;0.30;;;0.30;;
66421;SDS011;53228;51.380;0.098;2024-03-02T14:22:31;0.40;;;0.40;;
66421;SDS011;53228;51.380;0.098;2024-03-02T14:25:01;0.50;;;0.50;;
66421;SDS011;53228;51.380;0.098;2024-03-02T14:27:28;0.35;;;0.35;;
66421;SDS011;53228;51.380;0.098;2024-03-02T14:30:16;0.68;;;0.68;;
66421;SDS011;53228;51.380;0.098;2024-03-02T14:32:44;0.82;;;0.80;;
66421;SDS011;53228;51.380;0.098;2024-03-02T14:35:12;0.82;;;0.75;;
66421;SDS011;53228;51.380;0.098;2024-03-02T14:37:39;0.68;;;0.68;;
66421;SDS011;53228;51.380;0.098;2024-03-02T14:40:07;0.80;;;0.80;;
66421;SDS011;53228;51.380;0.098;2024-03-02T14:42:37;0.82;;;0.68;;
66421;SDS011;53228;51.380;0.098;2024-03-02T14:45:04;1.00;;;0.90;;
66421;SDS011;53228;51.380;0.098;2024-03-02T14:47:32;0.85;;;0.70;;
66421;SDS011;53228;51.380;0.098;2024-03-02T14:50:01;1.58;;;0.85;;
66421;SDS011;53228;51.380;0.098;2024-03-02T14:52:35;1.45;;;1.10;;
66421;SDS011;53228;51.380;0.098;2024-03-02T14:55:03;0.80;;;0.80;;
66421;SDS011;53228;51.380;0.098;2024-03-02T14:57:34;0.77;;;0.77;;